sensor_id;sensor_type;location;lat;lon;timestamp;temperature;humidity
10964;DHT22;5534;48.784;9.190;2022-11-04T00:02:02;13.20;99.90
10964;DHT22;5534;48.784;9.190;2022-11-04T00:04:28;13.30;99.90
10964;DHT22;5534;48.784;9.190;2022-11-04T00:06:55;13.30;99.90
10964;DHT22;5534;48.784;9.190;2022-11-04T00:09:26;13.30;99.90
10964;DHT22;5534;48.784;9.190;2022-11-04T00:11:52;13.40;99.90
10964;DHT22;5534;48.784;9.190;2022-11-04T00:14:37;13.30;99.90
10964;DHT22;5534;48.784;9.190;2022-11-04T00:17:04;13.30;99.90
10964;DHT22;5534;48.784;9.190;2022-11-04T00:19:51;13.40;99.90
10964;DHT22;5534;48.784;9.190;2022-11-04T00:22:36;13.40;99.90
10964;DHT22;5534;48.784;9.190;2022-11-04T00:25:21;13.30;99.90
10964;DHT22;5534;48.784;9.190;2022-11-04T00:28:19;13.30;99.90
10964;DHT22;5534;48.784;9.190;2022-11-04T00:31:07;13.20;99.90
10964;DHT22;5534;48.784;9.190;2022-11-04T00:33:53;13.30;99.90
10964;DHT22;5534;48.784;9.190;2022-11-04T00:36:20;13.40;99.90
10964;DHT22;5534;48.784;9.190;2022-11-04T00:38:50;13.40;99.90
10964;DHT22;5534;48.784;9.190;2022-11-04T00:41:16;13.60;99.90
10964;DHT22;5534;48.784;9.190;2022-11-04T00:43:58;13.60;99.90
10964;DHT22;5534;48.784;9.190;2022-11-04T00:46:25;13.50;99.90
10964;DHT22;5534;48.784;9.190;2022-11-04T00:48:52;13.50;99.90
10964;DHT22;5534;48.784;9.190;2022-11-04T00:51:18;13.50;99.90
10964;DHT22;5534;48.784;9.190;2022-11-04T00:53:47;13.30;99.90
10964;DHT22;5534;48.784;9.190;2022-11-04T00:56:13;13.40;99.90
10964;DHT22;5534;48.784;9.190;2022-11-04T00:58:39;13.20;99.90
10964;DHT22;5534;48.784;9.190;2022-11-04T01:01:12;13.10;99.90
10964;DHT22;5534;48.784;9.190;2022-11-04T01:03:42;13.20;99.90
10964;DHT22;5534;48.784;9.190;2022-11-04T01:06:08;13.40;99.90
10964;DHT22;5534;48.784;9.190;2022-11-04T01:08:34;13.00;99.90
10964;DHT22;5534;48.784;9.190;2022-11-04T01:11:04;13.10;99.90
10964;DHT22;5534;48.784;9.190;2022-11-04T01:13:31;13.20;99.90
10964;DHT22;5534;48.784;9.190;2022-11-04T01:15:58;13.00;99.90
10964;DHT22;5534;48.784;9.190;2022-11-04T01:18:24;13.10;99.90
10964;DHT22;5534;48.784;9.190;2022-11-04T01:20:49;12.90;99.90
10964;DHT22;5534;48.784;9.190;2022-11-04T01:23:15;12.90;99.90
10964;DHT22;5534;48.784;9.190;2022-11-04T01:25:41;13.20;99.90
10964;DHT22;5534;48.784;9.190;2022-11-04T01:28:08;13.20;99.90
10964;DHT22;5534;48.784;9.190;2022-11-04T01:30:36;13.30;99.90
10964;DHT22;5534;48.784;9.190;2022-11-04T01:33:02;13.40;99.90
10964;DHT22;5534;48.784;9.190;2022-11-04T01:35:27;13.30;99.90
10964;DHT22;5534;48.784;9.190;2022-11-04T01:37:53;13.30;99.90
10964;DHT22;5534;48.784;9.190;2022-11-04T01:40:19;13.30;99.90
10964;DHT22;5534;48.784;9.190;2022-11-04T01:42:44;13.30;99.90
10964;DHT22;5534;48.784;9.190;2022-11-04T01:45:15;13.00;99.90
10964;DHT22;5534;48.784;9.190;2022-11-04T01:47:47;12.90;99.90
10964;DHT22;5534;48.784;9.190;2022-11-04T01:50:18;12.70;99.90
10964;DHT22;5534;48.784;9.190;2022-11-04T01:53:00;12.60;99.90
10964;DHT22;5534;48.784;9.190;2022-11-04T01:55:32;12.90;99.90
10964;DHT22;5534;48.784;9.190;2022-11-04T01:58:05;13.10;99.90
10964;DHT22;5534;48.784;9.190;2022-11-04T02:00:32;13.00;99.90
10964;DHT22;5534;48.784;9.190;2022-11-04T02:05:26;13.20;99.90
10964;DHT22;5534;48.784;9.190;2022-11-04T02:07:55;13.20;99.90
10964;DHT22;5534;48.784;9.190;2022-11-04T02:10:25;13.30;99.90
10964;DHT22;5534;48.784;9.190;2022-11-04T02:12:53;13.40;99.90
10964;DHT22;5534;48.784;9.190;2022-11-04T02:21:13;13.10;99.90
10964;DHT22;5534;48.784;9.190;2022-11-04T02:24:08;13.10;99.90
10964;DHT22;5534;48.784;9.190;2022-11-04T02:37:56;13.20;99.90
10964;DHT22;5534;48.784;9.190;2022-11-04T02:40:37;13.00;99.90
10964;DHT22;5534;48.784;9.190;2022-11-04T02:46:19;13.00;99.90
10964;DHT22;5534;48.784;9.190;2022-11-04T02:48:59;12.90;99.90
10964;DHT22;5534;48.784;9.190;2022-11-04T02:51:46;13.00;99.90
10964;DHT22;5534;48.784;9.190;2022-11-04T02:54:30;13.00;99.90
10964;DHT22;5534;48.784;9.190;2022-11-04T02:57:00;12.90;99.90
10964;DHT22;5534;48.784;9.190;2022-11-04T02:59:42;12.90;99.90
10964;DHT22;5534;48.784;9.190;2022-11-04T03:02:17;12.90;99.90
10964;DHT22;5534;48.784;9.190;2022-11-04T03:04:47;13.00;99.90
10964;DHT22;5534;48.784;9.190;2022-11-04T03:07:17;13.20;99.90
10964;DHT22;5534;48.784;9.190;2022-11-04T03:09:50;13.10;99.90
10964;DHT22;5534;48.784;9.190;2022-11-04T03:12:20;13.20;99.90
10964;DHT22;5534;48.784;9.190;2022-11-04T03:14:51;13.30;99.90
10964;DHT22;5534;48.784;9.190;2022-11-04T03:19:59;13.30;99.90
10964;DHT22;5534;48.784;9.190;2022-11-04T03:22:28;13.30;99.90
10964;DHT22;5534;48.784;9.190;2022-11-04T03:24:54;13.10;99.90
10964;DHT22;5534;48.784;9.190;2022-11-04T03:29:56;13.20;99.90
10964;DHT22;5534;48.784;9.190;2022-11-04T03:35:16;13.00;99.90
10964;DHT22;5534;48.784;9.190;2022-11-04T03:37:43;12.90;99.90
10964;DHT22;5534;48.784;9.190;2022-11-04T03:40:10;13.00;99.90
10964;DHT22;5534;48.784;9.190;2022-11-04T03:42:42;13.10;99.90
10964;DHT22;5534;48.784;9.190;2022-11-04T03:45:12;13.30;99.90
10964;DHT22;5534;48.784;9.190;2022-11-04T03:47:39;13.10;99.90
10964;DHT22;5534;48.784;9.190;2022-11-04T03:50:19;13.10;99.90
10964;DHT22;5534;48.784;9.190;2022-11-04T03:52:48;12.90;99.90
10964;DHT22;5534;48.784;9.190;2022-11-04T03:55:14;13.00;99.90
10964;DHT22;5534;48.784;9.190;2022-11-04T04:00:34;13.10;99.90
10964;DHT22;5534;48.784;9.190;2022-11-04T04:03:17;12.90;99.90
10964;DHT22;5534;48.784;9.190;2022-11-04T04:06:14;12.80;99.90
10964;DHT22;5534;48.784;9.190;2022-11-04T04:08:48;12.80;99.90
10964;DHT22;5534;48.784;9.190;2022-11-04T04:12:00;12.80;99.90
10964;DHT22;5534;48.784;9.190;2022-11-04T04:14:31;12.30;99.90
10964;DHT22;5534;48.784;9.190;2022-11-04T04:17:24;12.30;99.90
10964;DHT22;5534;48.784;9.190;2022-11-04T04:20:03;12.30;99.90
10964;DHT22;5534;48.784;9.190;2022-11-04T04:22:39;12.20;99.90
10964;DHT22;5534;48.784;9.190;2022-11-04T04:25:09;12.30;99.90
10964;DHT22;5534;48.784;9.190;2022-11-04T04:27:56;12.30;99.90
10964;DHT22;5534;48.784;9.190;2022-11-04T04:30:22;12.40;99.90
10964;DHT22;5534;48.784;9.190;2022-11-04T04:33:00;12.30;99.90
10964;DHT22;5534;48.784;9.190;2022-11-04T04:35:29;12.40;99.90
10964;DHT22;5534;48.784;9.190;2022-11-04T04:38:23;12.40;99.90
10964;DHT22;5534;48.784;9.190;2022-11-04T04:44:00;12.60;99.90
10964;DHT22;5534;48.784;9.190;2022-11-04T04:46:46;12.70;99.90
10964;DHT22;5534;48.784;9.190;2022-11-04T04:49:13;12.80;99.90
10964;DHT22;5534;48.784;9.190;2022-11-04T04:51:45;12.90;99.90
10964;DHT22;5534;48.784;9.190;2022-11-04T04:54:12;12.90;99.90
10964;DHT22;5534;48.784;9.190;2022-11-04T04:56:38;12.90;99.90
10964;DHT22;5534;48.784;9.190;2022-11-04T04:59:04;12.90;99.90
10964;DHT22;5534;48.784;9.190;2022-11-04T05:01:30;12.90;99.90
10964;DHT22;5534;48.784;9.190;2022-11-04T05:03:56;12.90;99.90
10964;DHT22;5534;48.784;9.190;2022-11-04T05:06:22;12.80;99.90
10964;DHT22;5534;48.784;9.190;2022-11-04T05:08:48;12.70;99.90
10964;DHT22;5534;48.784;9.190;2022-11-04T05:11:13;12.50;99.90
10964;DHT22;5534;48.784;9.190;2022-11-04T05:13:39;12.50;99.90
10964;DHT22;5534;48.784;9.190;2022-11-04T05:16:08;12.60;99.90
10964;DHT22;5534;48.784;9.190;2022-11-04T05:18:34;12.20;99.90
10964;DHT22;5534;48.784;9.190;2022-11-04T05:21:10;12.40;99.90
10964;DHT22;5534;48.784;9.190;2022-11-04T05:23:36;12.30;99.90
10964;DHT22;5534;48.784;9.190;2022-11-04T05:26:02;11.60;99.90
10964;DHT22;5534;48.784;9.190;2022-11-04T05:28:28;11.60;99.90
10964;DHT22;5534;48.784;9.190;2022-11-04T05:30:54;11.70;99.90
10964;DHT22;5534;48.784;9.190;2022-11-04T05:33:20;11.80;99.90
10964;DHT22;5534;48.784;9.190;2022-11-04T05:35:46;11.90;99.90
10964;DHT22;5534;48.784;9.190;2022-11-04T05:38:12;12.00;99.90
10964;DHT22;5534;48.784;9.190;2022-11-04T05:40:38;12.20;99.90
10964;DHT22;5534;48.784;9.190;2022-11-04T05:43:05;12.30;99.90
10964;DHT22;5534;48.784;9.190;2022-11-04T05:45:30;12.40;99.90
10964;DHT22;5534;48.784;9.190;2022-11-04T05:48:00;12.40;99.90
10964;DHT22;5534;48.784;9.190;2022-11-04T05:50:27;12.30;99.90
10964;DHT22;5534;48.784;9.190;2022-11-04T05:52:56;12.10;99.90
10964;DHT22;5534;48.784;9.190;2022-11-04T05:55:22;11.80;99.90
10964;DHT22;5534;48.784;9.190;2022-11-04T05:57:47;11.70;99.90
10964;DHT22;5534;48.784;9.190;2022-11-04T06:00:13;11.90;99.90
10964;DHT22;5534;48.784;9.190;2022-11-04T06:02:40;12.20;99.90
10964;DHT22;5534;48.784;9.190;2022-11-04T06:05:07;12.30;99.90
10964;DHT22;5534;48.784;9.190;2022-11-04T06:07:33;12.40;99.90
10964;DHT22;5534;48.784;9.190;2022-11-04T06:09:59;12.40;99.90
10964;DHT22;5534;48.784;9.190;2022-11-04T06:12:24;12.20;99.90
10964;DHT22;5534;48.784;9.190;2022-11-04T06:14:50;12.00;99.90
10964;DHT22;5534;48.784;9.190;2022-11-04T06:17:18;12.10;99.90
10964;DHT22;5534;48.784;9.190;2022-11-04T06:19:44;12.20;99.90
10964;DHT22;5534;48.784;9.190;2022-11-04T06:22:11;12.20;99.90
10964;DHT22;5534;48.784;9.190;2022-11-04T06:24:38;12.20;99.90
10964;DHT22;5534;48.784;9.190;2022-11-04T06:27:04;12.10;99.90
10964;DHT22;5534;48.784;9.190;2022-11-04T06:29:29;12.30;99.90
10964;DHT22;5534;48.784;9.190;2022-11-04T06:31:55;12.30;99.90
10964;DHT22;5534;48.784;9.190;2022-11-04T06:34:21;12.40;99.90
10964;DHT22;5534;48.784;9.190;2022-11-04T06:36:48;12.40;99.90
10964;DHT22;5534;48.784;9.190;2022-11-04T06:39:14;12.40;99.90
10964;DHT22;5534;48.784;9.190;2022-11-04T06:41:40;12.30;99.90
10964;DHT22;5534;48.784;9.190;2022-11-04T06:44:06;11.80;99.90
10964;DHT22;5534;48.784;9.190;2022-11-04T06:46:37;11.50;99.90
10964;DHT22;5534;48.784;9.190;2022-11-04T06:49:04;11.40;99.90
10964;DHT22;5534;48.784;9.190;2022-11-04T06:51:31;11.70;99.90
10964;DHT22;5534;48.784;9.190;2022-11-04T06:53:57;11.80;99.90
10964;DHT22;5534;48.784;9.190;2022-11-04T06:56:23;11.70;99.90
10964;DHT22;5534;48.784;9.190;2022-11-04T06:58:51;11.80;99.90
10964;DHT22;5534;48.784;9.190;2022-11-04T07:01:17;12.10;99.90
10964;DHT22;5534;48.784;9.190;2022-11-04T07:03:43;12.20;99.90
10964;DHT22;5534;48.784;9.190;2022-11-04T07:06:10;12.20;99.90
10964;DHT22;5534;48.784;9.190;2022-11-04T07:08:36;12.30;99.90
10964;DHT22;5534;48.784;9.190;2022-11-04T07:11:02;12.30;99.90
10964;DHT22;5534;48.784;9.190;2022-11-04T07:13:28;12.00;99.90
10964;DHT22;5534;48.784;9.190;2022-11-04T07:15:54;12.20;99.90
10964;DHT22;5534;48.784;9.190;2022-11-04T07:18:20;12.30;99.90
10964;DHT22;5534;48.784;9.190;2022-11-04T07:20:46;12.40;99.90
10964;DHT22;5534;48.784;9.190;2022-11-04T07:23:12;12.40;99.90
10964;DHT22;5534;48.784;9.190;2022-11-04T07:25:37;12.50;99.90
10964;DHT22;5534;48.784;9.190;2022-11-04T07:28:03;12.40;99.90
10964;DHT22;5534;48.784;9.190;2022-11-04T07:30:30;12.00;99.90
10964;DHT22;5534;48.784;9.190;2022-11-04T07:32:56;12.10;99.90
10964;DHT22;5534;48.784;9.190;2022-11-04T07:35:22;12.20;99.90
10964;DHT22;5534;48.784;9.190;2022-11-04T07:37:48;12.30;99.90
10964;DHT22;5534;48.784;9.190;2022-11-04T07:40:14;12.40;99.90
10964;DHT22;5534;48.784;9.190;2022-11-04T07:42:40;12.40;99.90
10964;DHT22;5534;48.784;9.190;2022-11-04T07:45:06;12.40;99.90
10964;DHT22;5534;48.784;9.190;2022-11-04T07:47:35;12.40;99.90
10964;DHT22;5534;48.784;9.190;2022-11-04T07:50:01;12.50;99.90
10964;DHT22;5534;48.784;9.190;2022-11-04T07:52:27;12.40;99.90
10964;DHT22;5534;48.784;9.190;2022-11-04T07:54:52;12.50;99.90
10964;DHT22;5534;48.784;9.190;2022-11-04T07:57:18;12.60;99.90
10964;DHT22;5534;48.784;9.190;2022-11-04T07:59:44;12.80;99.90
10964;DHT22;5534;48.784;9.190;2022-11-04T08:02:11;12.70;99.90
10964;DHT22;5534;48.784;9.190;2022-11-04T08:04:39;12.70;99.90
10964;DHT22;5534;48.784;9.190;2022-11-04T08:07:08;12.70;99.90
10964;DHT22;5534;48.784;9.190;2022-11-04T08:09:35;12.50;99.90
10964;DHT22;5534;48.784;9.190;2022-11-04T08:12:04;12.60;99.90
10964;DHT22;5534;48.784;9.190;2022-11-04T08:14:30;12.70;99.90
10964;DHT22;5534;48.784;9.190;2022-11-04T08:16:56;12.70;99.90
10964;DHT22;5534;48.784;9.190;2022-11-04T08:19:22;12.70;99.90
10964;DHT22;5534;48.784;9.190;2022-11-04T08:21:49;12.60;99.90
10964;DHT22;5534;48.784;9.190;2022-11-04T08:24:15;12.60;99.90
10964;DHT22;5534;48.784;9.190;2022-11-04T08:26:41;12.80;99.90
10964;DHT22;5534;48.784;9.190;2022-11-04T08:29:07;12.80;99.90
10964;DHT22;5534;48.784;9.190;2022-11-04T08:31:33;12.90;99.90
10964;DHT22;5534;48.784;9.190;2022-11-04T08:33:59;12.90;99.90
10964;DHT22;5534;48.784;9.190;2022-11-04T08:36:31;13.00;99.90
10964;DHT22;5534;48.784;9.190;2022-11-04T08:39:00;13.00;99.90
10964;DHT22;5534;48.784;9.190;2022-11-04T08:41:28;13.00;99.90
10964;DHT22;5534;48.784;9.190;2022-11-04T08:43:57;13.10;99.90
10964;DHT22;5534;48.784;9.190;2022-11-04T08:46:27;13.10;99.90
10964;DHT22;5534;48.784;9.190;2022-11-04T08:48:53;13.10;99.90
10964;DHT22;5534;48.784;9.190;2022-11-04T08:51:22;13.10;99.90
10964;DHT22;5534;48.784;9.190;2022-11-04T08:53:48;13.30;99.90
10964;DHT22;5534;48.784;9.190;2022-11-04T08:56:20;13.10;99.90
10964;DHT22;5534;48.784;9.190;2022-11-04T08:58:46;13.10;99.90
10964;DHT22;5534;48.784;9.190;2022-11-04T09:01:14;13.10;99.90
10964;DHT22;5534;48.784;9.190;2022-11-04T09:03:43;13.00;99.90
10964;DHT22;5534;48.784;9.190;2022-11-04T09:06:12;13.10;99.90
10964;DHT22;5534;48.784;9.190;2022-11-04T09:08:40;13.00;99.90
10964;DHT22;5534;48.784;9.190;2022-11-04T09:11:09;12.90;99.90
10964;DHT22;5534;48.784;9.190;2022-11-04T09:13:36;13.00;99.90
10964;DHT22;5534;48.784;9.190;2022-11-04T09:16:03;13.00;99.90
10964;DHT22;5534;48.784;9.190;2022-11-04T09:18:29;13.20;99.90
10964;DHT22;5534;48.784;9.190;2022-11-04T09:20:59;13.00;99.90
10964;DHT22;5534;48.784;9.190;2022-11-04T09:23:25;13.00;99.90
10964;DHT22;5534;48.784;9.190;2022-11-04T09:25:51;13.20;99.90
10964;DHT22;5534;48.784;9.190;2022-11-04T09:28:17;13.30;99.90
10964;DHT22;5534;48.784;9.190;2022-11-04T09:30:43;13.50;99.90
10964;DHT22;5534;48.784;9.190;2022-11-04T09:33:08;13.30;99.90
10964;DHT22;5534;48.784;9.190;2022-11-04T09:35:34;13.30;99.90
10964;DHT22;5534;48.784;9.190;2022-11-04T09:38:00;13.20;99.90
10964;DHT22;5534;48.784;9.190;2022-11-04T09:40:27;13.30;99.90
10964;DHT22;5534;48.784;9.190;2022-11-04T09:45:31;13.20;99.90
10964;DHT22;5534;48.784;9.190;2022-11-04T09:48:02;13.10;99.90
10964;DHT22;5534;48.784;9.190;2022-11-04T09:50:54;13.10;99.90
10964;DHT22;5534;48.784;9.190;2022-11-04T09:53:41;13.20;99.90
10964;DHT22;5534;48.784;9.190;2022-11-04T09:56:20;13.10;99.90
10964;DHT22;5534;48.784;9.190;2022-11-04T09:58:47;13.40;99.90
10964;DHT22;5534;48.784;9.190;2022-11-04T10:12:37;13.60;99.90
10964;DHT22;5534;48.784;9.190;2022-11-04T10:26:16;14.00;99.90
10964;DHT22;5534;48.784;9.190;2022-11-04T10:29:03;13.80;99.90
10964;DHT22;5534;48.784;9.190;2022-11-04T10:31:29;13.90;99.90
10964;DHT22;5534;48.784;9.190;2022-11-04T10:34:07;13.80;99.90
10964;DHT22;5534;48.784;9.190;2022-11-04T10:36:37;13.60;99.90
10964;DHT22;5534;48.784;9.190;2022-11-04T10:39:14;13.70;99.90
10964;DHT22;5534;48.784;9.190;2022-11-04T10:41:42;13.60;99.90
10964;DHT22;5534;48.784;9.190;2022-11-04T10:52:06;13.70;99.90
10964;DHT22;5534;48.784;9.190;2022-11-04T10:54:41;13.70;99.90
10964;DHT22;5534;48.784;9.190;2022-11-04T10:57:09;13.90;99.90
10964;DHT22;5534;48.784;9.190;2022-11-04T10:59:57;14.10;99.90
10964;DHT22;5534;48.784;9.190;2022-11-04T11:07:53;14.00;99.90
10964;DHT22;5534;48.784;9.190;2022-11-04T11:10:28;14.10;99.90
10964;DHT22;5534;48.784;9.190;2022-11-04T11:15:34;13.80;99.90
10964;DHT22;5534;48.784;9.190;2022-11-04T11:18:12;13.60;99.90
10964;DHT22;5534;48.784;9.190;2022-11-04T11:20:40;13.80;99.90
10964;DHT22;5534;48.784;9.190;2022-11-04T11:26:51;13.80;99.90
10964;DHT22;5534;48.784;9.190;2022-11-04T11:28:58;13.80;99.90
10964;DHT22;5534;48.784;9.190;2022-11-04T11:31:36;14.00;99.90
10964;DHT22;5534;48.784;9.190;2022-11-04T11:34:05;14.10;99.90
10964;DHT22;5534;48.784;9.190;2022-11-04T11:36:38;13.80;99.90
10964;DHT22;5534;48.784;9.190;2022-11-04T11:52:50;13.80;99.90
10964;DHT22;5534;48.784;9.190;2022-11-04T11:55:26;13.90;99.90
10964;DHT22;5534;48.784;9.190;2022-11-04T12:00:18;13.90;99.90
10964;DHT22;5534;48.784;9.190;2022-11-04T12:03:20;13.90;99.90
10964;DHT22;5534;48.784;9.190;2022-11-04T12:31:50;14.20;99.90
10964;DHT22;5534;48.784;9.190;2022-11-04T12:47:43;14.30;99.90
10964;DHT22;5534;48.784;9.190;2022-11-04T12:53:15;14.30;99.90
10964;DHT22;5534;48.784;9.190;2022-11-04T13:01:53;14.30;99.90
10964;DHT22;5534;48.784;9.190;2022-11-04T13:04:23;14.40;99.90
10964;DHT22;5534;48.784;9.190;2022-11-04T13:07:21;14.30;99.90
10964;DHT22;5534;48.784;9.190;2022-11-04T13:09:55;14.20;99.90
10964;DHT22;5534;48.784;9.190;2022-11-04T13:12:34;14.20;99.90
10964;DHT22;5534;48.784;9.190;2022-11-04T13:15:06;14.30;99.90
10964;DHT22;5534;48.784;9.190;2022-11-04T13:17:38;14.40;99.90
10964;DHT22;5534;48.784;9.190;2022-11-04T13:22:44;14.50;99.90
10964;DHT22;5534;48.784;9.190;2022-11-04T13:27:58;14.40;99.90
10964;DHT22;5534;48.784;9.190;2022-11-04T13:39:17;14.60;99.90
10964;DHT22;5534;48.784;9.190;2022-11-04T13:44:38;14.50;99.90
10964;DHT22;5534;48.784;9.190;2022-11-04T13:47:15;14.40;99.90
10964;DHT22;5534;48.784;9.190;2022-11-04T13:49:47;14.50;99.90
10964;DHT22;5534;48.784;9.190;2022-11-04T13:52:14;14.40;99.90
10964;DHT22;5534;48.784;9.190;2022-11-04T13:54:50;14.30;99.90
10964;DHT22;5534;48.784;9.190;2022-11-04T13:57:22;14.00;99.90
10964;DHT22;5534;48.784;9.190;2022-11-04T14:00:17;14.00;99.90
10964;DHT22;5534;48.784;9.190;2022-11-04T14:02:45;13.80;99.90
10964;DHT22;5534;48.784;9.190;2022-11-04T14:18:52;12.80;99.90
10964;DHT22;5534;48.784;9.190;2022-11-04T14:21:25;12.50;99.90
10964;DHT22;5534;48.784;9.190;2022-11-04T14:23:57;12.30;99.90
10964;DHT22;5534;48.784;9.190;2022-11-04T14:26:43;12.10;99.90
10964;DHT22;5534;48.784;9.190;2022-11-04T14:29:24;12.20;99.90
10964;DHT22;5534;48.784;9.190;2022-11-04T14:31:56;12.20;99.90
10964;DHT22;5534;48.784;9.190;2022-11-04T14:34:35;12.30;99.90
10964;DHT22;5534;48.784;9.190;2022-11-04T14:39:44;12.60;99.90
10964;DHT22;5534;48.784;9.190;2022-11-04T14:42:42;12.60;99.90
10964;DHT22;5534;48.784;9.190;2022-11-04T14:45:14;12.60;99.90
10964;DHT22;5534;48.784;9.190;2022-11-04T14:47:42;12.20;99.90
10964;DHT22;5534;48.784;9.190;2022-11-04T14:50:24;12.00;99.90
10964;DHT22;5534;48.784;9.190;2022-11-04T14:57:49;12.30;99.90
10964;DHT22;5534;48.784;9.190;2022-11-04T15:03:13;12.50;99.90
10964;DHT22;5534;48.784;9.190;2022-11-04T15:05:44;12.30;99.90
10964;DHT22;5534;48.784;9.190;2022-11-04T15:13:37;12.60;99.90
10964;DHT22;5534;48.784;9.190;2022-11-04T15:18:41;12.60;99.90
10964;DHT22;5534;48.784;9.190;2022-11-04T15:21:07;12.40;99.90
10964;DHT22;5534;48.784;9.190;2022-11-04T15:23:48;12.70;99.90
10964;DHT22;5534;48.784;9.190;2022-11-04T15:26:29;12.70;99.90
10964;DHT22;5534;48.784;9.190;2022-11-04T15:28:58;12.80;99.90
10964;DHT22;5534;48.784;9.190;2022-11-04T15:31:30;12.80;99.90
10964;DHT22;5534;48.784;9.190;2022-11-04T15:34:02;12.80;99.90
10964;DHT22;5534;48.784;9.190;2022-11-04T15:36:32;12.80;99.90
10964;DHT22;5534;48.784;9.190;2022-11-04T15:39:02;12.80;99.90
10964;DHT22;5534;48.784;9.190;2022-11-04T15:41:30;12.80;99.90
10964;DHT22;5534;48.784;9.190;2022-11-04T15:44:25;12.80;99.90
10964;DHT22;5534;48.784;9.190;2022-11-04T15:46:57;12.80;99.90
10964;DHT22;5534;48.784;9.190;2022-11-04T15:49:29;12.70;99.90
10964;DHT22;5534;48.784;9.190;2022-11-04T15:52:06;12.70;99.90
10964;DHT22;5534;48.784;9.190;2022-11-04T15:54:37;12.70;99.90
10964;DHT22;5534;48.784;9.190;2022-11-04T15:57:43;12.80;99.90
10964;DHT22;5534;48.784;9.190;2022-11-04T16:02:37;12.80;99.90
10964;DHT22;5534;48.784;9.190;2022-11-04T16:05:28;12.80;99.90
10964;DHT22;5534;48.784;9.190;2022-11-04T16:07:55;12.80;99.90
10964;DHT22;5534;48.784;9.190;2022-11-04T16:10:38;12.70;99.90
10964;DHT22;5534;48.784;9.190;2022-11-04T16:18:22;12.70;99.90
10964;DHT22;5534;48.784;9.190;2022-11-04T16:20:49;12.60;99.90
10964;DHT22;5534;48.784;9.190;2022-11-04T16:23:22;12.60;99.90
10964;DHT22;5534;48.784;9.190;2022-11-04T16:26:00;12.50;99.90
10964;DHT22;5534;48.784;9.190;2022-11-04T16:28:29;12.50;99.90
10964;DHT22;5534;48.784;9.190;2022-11-04T16:31:02;12.60;99.90
10964;DHT22;5534;48.784;9.190;2022-11-04T16:33:28;12.70;99.90
10964;DHT22;5534;48.784;9.190;2022-11-04T16:35:53;12.40;99.90
10964;DHT22;5534;48.784;9.190;2022-11-04T16:38:19;12.50;99.90
10964;DHT22;5534;48.784;9.190;2022-11-04T16:40:47;12.50;99.90
10964;DHT22;5534;48.784;9.190;2022-11-04T16:43:16;12.50;99.90
10964;DHT22;5534;48.784;9.190;2022-11-04T16:45:46;12.60;99.90
10964;DHT22;5534;48.784;9.190;2022-11-04T16:48:17;12.60;99.90
10964;DHT22;5534;48.784;9.190;2022-11-04T16:50:43;12.60;99.90
10964;DHT22;5534;48.784;9.190;2022-11-04T16:53:09;12.50;99.90
10964;DHT22;5534;48.784;9.190;2022-11-04T16:55:39;12.70;99.90
10964;DHT22;5534;48.784;9.190;2022-11-04T16:58:05;12.50;99.90
10964;DHT22;5534;48.784;9.190;2022-11-04T17:00:31;12.50;99.90
10964;DHT22;5534;48.784;9.190;2022-11-04T17:03:10;12.50;99.90
10964;DHT22;5534;48.784;9.190;2022-11-04T17:05:36;12.60;99.90
10964;DHT22;5534;48.784;9.190;2022-11-04T17:08:02;12.50;99.90
10964;DHT22;5534;48.784;9.190;2022-11-04T17:10:29;12.50;99.90
10964;DHT22;5534;48.784;9.190;2022-11-04T17:12:55;12.40;99.90
10964;DHT22;5534;48.784;9.190;2022-11-04T17:15:21;12.30;99.90
10964;DHT22;5534;48.784;9.190;2022-11-04T17:17:47;12.30;99.90
10964;DHT22;5534;48.784;9.190;2022-11-04T17:20:15;12.30;99.90
10964;DHT22;5534;48.784;9.190;2022-11-04T17:22:42;12.30;99.90
10964;DHT22;5534;48.784;9.190;2022-11-04T17:25:24;12.30;99.90
10964;DHT22;5534;48.784;9.190;2022-11-04T17:27:50;12.30;99.90
10964;DHT22;5534;48.784;9.190;2022-11-04T17:30:16;12.20;99.90
10964;DHT22;5534;48.784;9.190;2022-11-04T17:32:43;12.30;99.90
10964;DHT22;5534;48.784;9.190;2022-11-04T17:35:10;12.40;99.90
10964;DHT22;5534;48.784;9.190;2022-11-04T17:37:36;12.40;99.90
10964;DHT22;5534;48.784;9.190;2022-11-04T17:40:02;12.40;99.90
10964;DHT22;5534;48.784;9.190;2022-11-04T17:42:28;12.40;99.90
10964;DHT22;5534;48.784;9.190;2022-11-04T17:45:12;12.30;99.90
10964;DHT22;5534;48.784;9.190;2022-11-04T17:47:38;12.30;99.90
10964;DHT22;5534;48.784;9.190;2022-11-04T17:50:04;12.40;99.90
10964;DHT22;5534;48.784;9.190;2022-11-04T17:52:33;12.30;99.90
10964;DHT22;5534;48.784;9.190;2022-11-04T17:54:59;12.30;99.90
10964;DHT22;5534;48.784;9.190;2022-11-04T17:57:25;12.40;99.90
10964;DHT22;5534;48.784;9.190;2022-11-04T17:59:51;12.40;99.90
10964;DHT22;5534;48.784;9.190;2022-11-04T18:02:16;12.50;99.90
10964;DHT22;5534;48.784;9.190;2022-11-04T18:04:44;12.50;99.90
10964;DHT22;5534;48.784;9.190;2022-11-04T18:07:10;12.70;99.90
10964;DHT22;5534;48.784;9.190;2022-11-04T18:09:36;12.50;99.90
10964;DHT22;5534;48.784;9.190;2022-11-04T18:12:05;12.50;99.90
10964;DHT22;5534;48.784;9.190;2022-11-04T18:14:49;12.50;99.90
10964;DHT22;5534;48.784;9.190;2022-11-04T18:17:15;12.60;99.90
10964;DHT22;5534;48.784;9.190;2022-11-04T18:19:41;12.40;99.90
10964;DHT22;5534;48.784;9.190;2022-11-04T18:22:07;12.50;99.90
10964;DHT22;5534;48.784;9.190;2022-11-04T18:24:33;12.40;99.90
10964;DHT22;5534;48.784;9.190;2022-11-04T18:26:59;12.50;99.90
10964;DHT22;5534;48.784;9.190;2022-11-04T18:29:25;12.40;99.90
10964;DHT22;5534;48.784;9.190;2022-11-04T18:31:51;12.40;99.90
10964;DHT22;5534;48.784;9.190;2022-11-04T18:34:17;12.30;99.90
10964;DHT22;5534;48.784;9.190;2022-11-04T18:36:44;12.50;99.90
10964;DHT22;5534;48.784;9.190;2022-11-04T18:39:13;12.40;99.90
10964;DHT22;5534;48.784;9.190;2022-11-04T18:41:39;12.40;99.90
10964;DHT22;5534;48.784;9.190;2022-11-04T18:44:16;12.30;99.90
10964;DHT22;5534;48.784;9.190;2022-11-04T18:46:43;12.30;99.90
10964;DHT22;5534;48.784;9.190;2022-11-04T18:49:09;12.30;99.90
10964;DHT22;5534;48.784;9.190;2022-11-04T18:51:35;12.20;99.90
10964;DHT22;5534;48.784;9.190;2022-11-04T18:54:06;12.20;99.90
10964;DHT22;5534;48.784;9.190;2022-11-04T18:56:32;12.30;99.90
10964;DHT22;5534;48.784;9.190;2022-11-04T18:58:58;12.40;99.90
10964;DHT22;5534;48.784;9.190;2022-11-04T19:01:27;12.30;99.90
10964;DHT22;5534;48.784;9.190;2022-11-04T19:03:53;12.20;99.90
10964;DHT22;5534;48.784;9.190;2022-11-04T19:06:21;12.20;99.90
10964;DHT22;5534;48.784;9.190;2022-11-04T19:08:49;12.50;99.90
10964;DHT22;5534;48.784;9.190;2022-11-04T19:11:26;12.30;99.90
10964;DHT22;5534;48.784;9.190;2022-11-04T19:13:54;12.40;99.90
10964;DHT22;5534;48.784;9.190;2022-11-04T19:16:21;12.40;99.90
10964;DHT22;5534;48.784;9.190;2022-11-04T19:18:47;12.20;99.90
10964;DHT22;5534;48.784;9.190;2022-11-04T19:21:16;12.20;99.90
10964;DHT22;5534;48.784;9.190;2022-11-04T19:23:43;12.40;99.90
10964;DHT22;5534;48.784;9.190;2022-11-04T19:26:13;12.40;99.90
10964;DHT22;5534;48.784;9.190;2022-11-04T19:28:41;12.40;99.90